sensor_id;sensor_type;location;lat;lon;timestamp;pressure;altitude;pressure_sealevel;temperature;humidity
75247;BME280;63844;50.042;19.224;2023-12-22T00:01:13;96030.09;;;4.93;88.68
75247;BME280;63844;50.042;19.224;2023-12-22T00:02:52;96026.45;;;4.92;89.01
75247;BME280;63844;50.042;19.224;2023-12-22T00:04:29;96032.82;;;4.90;89.12
75247;BME280;63844;50.042;19.224;2023-12-22T00:06:06;96030.64;;;4.89;88.57
75247;BME280;63844;50.042;19.224;2023-12-22T00:07:42;96030.71;;;4.88;88.96
75247;BME280;63844;50.042;19.224;2023-12-22T00:09:19;96035.90;;;4.85;88.76
75247;BME280;63844;50.042;19.224;2023-12-22T00:10:55;96037.92;;;4.86;88.84
75247;BME280;63844;50.042;19.224;2023-12-22T00:12:32;96042.80;;;4.84;88.88
75247;BME280;63844;50.042;19.224;2023-12-22T00:14:09;96044.91;;;4.84;88.80
75247;BME280;63844;50.042;19.224;2023-12-22T00:15:45;96051.45;;;4.81;89.02
75247;BME280;63844;50.042;19.224;2023-12-22T00:17:22;96053.22;;;4.79;89.27
75247;BME280;63844;50.042;19.224;2023-12-22T00:18:58;96053.38;;;4.77;89.87
75247;BME280;63844;50.042;19.224;2023-12-22T00:20:35;96057.89;;;4.76;90.23
75247;BME280;63844;50.042;19.224;2023-12-22T00:22:12;96062.23;;;4.78;90.94
75247;BME280;63844;50.042;19.224;2023-12-22T00:23:49;96066.41;;;4.77;91.21
75247;BME280;63844;50.042;19.224;2023-12-22T00:25:25;96058.52;;;4.77;91.66
75247;BME280;63844;50.042;19.224;2023-12-22T00:27:02;96061.65;;;4.77;91.70
75247;BME280;63844;50.042;19.224;2023-12-22T00:28:39;96059.58;;;4.79;91.23
75247;BME280;63844;50.042;19.224;2023-12-22T00:30:16;96059.54;;;4.81;90.64
75247;BME280;63844;50.042;19.224;2023-12-22T00:31:53;96060.80;;;4.83;90.90
75247;BME280;63844;50.042;19.224;2023-12-22T00:33:29;96065.95;;;4.84;90.40
75247;BME280;63844;50.042;19.224;2023-12-22T00:35:06;96069.05;;;4.84;90.19
75247;BME280;63844;50.042;19.224;2023-12-22T00:36:43;96070.50;;;4.88;90.51
75247;BME280;63844;50.042;19.224;2023-12-22T00:38:19;96082.73;;;4.88;90.64
75247;BME280;63844;50.042;19.224;2023-12-22T00:39:56;96106.41;;;4.88;91.37
75247;BME280;63844;50.042;19.224;2023-12-22T00:41:33;96134.97;;;4.86;91.83
75247;BME280;63844;50.042;19.224;2023-12-22T00:43:09;96135.16;;;4.80;92.24
75247;BME280;63844;50.042;19.224;2023-12-22T00:44:46;96145.27;;;4.70;91.50
75247;BME280;63844;50.042;19.224;2023-12-22T00:46:22;96154.46;;;4.53;91.39
75247;BME280;63844;50.042;19.224;2023-12-22T00:47:59;96132.84;;;4.41;91.73
75247;BME280;63844;50.042;19.224;2023-12-22T00:49:35;96132.02;;;4.26;92.48
75247;BME280;63844;50.042;19.224;2023-12-22T00:51:12;96132.84;;;4.16;93.48
75247;BME280;63844;50.042;19.224;2023-12-22T00:52:49;96143.13;;;4.09;93.89
75247;BME280;63844;50.042;19.224;2023-12-22T00:54:25;96142.38;;;4.05;93.90
75247;BME280;63844;50.042;19.224;2023-12-22T00:56:02;96135.60;;;4.04;93.48
75247;BME280;63844;50.042;19.224;2023-12-22T00:57:39;96134.54;;;4.02;93.73
75247;BME280;63844;50.042;19.224;2023-12-22T00:59:15;96141.41;;;4.00;93.26
75247;BME280;63844;50.042;19.224;2023-12-22T01:00:52;96143.81;;;3.98;92.92
75247;BME280;63844;50.042;19.224;2023-12-22T01:02:28;96151.38;;;3.98;92.68
75247;BME280;63844;50.042;19.224;2023-12-22T01:04:05;96141.90;;;3.98;91.99
75247;BME280;63844;50.042;19.224;2023-12-22T01:05:41;96149.84;;;4.00;91.52
75247;BME280;63844;50.042;19.224;2023-12-22T01:07:18;96151.98;;;3.99;91.26
75247;BME280;63844;50.042;19.224;2023-12-22T01:08:55;96153.73;;;3.99;90.47
75247;BME280;63844;50.042;19.224;2023-12-22T01:10:31;96159.19;;;4.01;90.55
75247;BME280;63844;50.042;19.224;2023-12-22T01:12:08;96159.98;;;4.00;90.37
75247;BME280;63844;50.042;19.224;2023-12-22T01:13:47;96156.95;;;4.02;89.71
75247;BME280;63844;50.042;19.224;2023-12-22T01:15:23;96158.80;;;4.01;89.79
75247;BME280;63844;50.042;19.224;2023-12-22T01:17:03;96165.29;;;3.99;89.60
75247;BME280;63844;50.042;19.224;2023-12-22T01:18:42;96169.39;;;3.98;89.60
75247;BME280;63844;50.042;19.224;2023-12-22T01:20:20;96176.41;;;3.98;89.50
75247;BME280;63844;50.042;19.224;2023-12-22T01:21:58;96173.51;;;3.97;89.30
75247;BME280;63844;50.042;19.224;2023-12-22T01:23:34;96175.06;;;3.97;89.44
75247;BME280;63844;50.042;19.224;2023-12-22T01:25:11;96174.23;;;3.97;89.52
75247;BME280;63844;50.042;19.224;2023-12-22T01:26:47;96175.92;;;3.95;89.52
75247;BME280;63844;50.042;19.224;2023-12-22T01:28:24;96177.19;;;3.97;89.26
75247;BME280;63844;50.042;19.224;2023-12-22T01:30:00;96180.67;;;3.97;88.63
75247;BME280;63844;50.042;19.224;2023-12-22T01:31:37;96180.08;;;3.98;88.61
75247;BME280;63844;50.042;19.224;2023-12-22T01:33:14;96179.20;;;3.98;88.11
75247;BME280;63844;50.042;19.224;2023-12-22T01:34:50;96180.33;;;3.95;87.91
75247;BME280;63844;50.042;19.224;2023-12-22T01:36:27;96182.48;;;3.96;87.51
75247;BME280;63844;50.042;19.224;2023-12-22T01:38:03;96183.02;;;3.94;87.89
75247;BME280;63844;50.042;19.224;2023-12-22T01:39:40;96188.48;;;3.94;86.70
75247;BME280;63844;50.042;19.224;2023-12-22T01:41:16;96189.30;;;3.98;86.54
75247;BME280;63844;50.042;19.224;2023-12-22T01:42:53;96190.29;;;3.99;86.39
75247;BME280;63844;50.042;19.224;2023-12-22T01:44:29;96191.84;;;3.99;86.76
75247;BME280;63844;50.042;19.224;2023-12-22T01:46:06;96193.77;;;3.97;87.10
75247;BME280;63844;50.042;19.224;2023-12-22T01:47:46;96200.98;;;3.97;86.88
75247;BME280;63844;50.042;19.224;2023-12-22T01:49:24;96198.09;;;4.00;86.17
75247;BME280;63844;50.042;19.224;2023-12-22T01:51:02;96201.97;;;4.02;86.05
75247;BME280;63844;50.042;19.224;2023-12-22T01:52:41;96194.89;;;4.03;86.12
75247;BME280;63844;50.042;19.224;2023-12-22T01:54:19;96189.34;;;4.02;85.81
75247;BME280;63844;50.042;19.224;2023-12-22T01:55:56;96187.64;;;4.08;85.37
75247;BME280;63844;50.042;19.224;2023-12-22T01:57:34;96193.27;;;4.07;85.37
75247;BME280;63844;50.042;19.224;2023-12-22T01:59:11;96197.77;;;4.08;84.88
75247;BME280;63844;50.042;19.224;2023-12-22T02:00:48;96196.55;;;4.10;85.23
75247;BME280;63844;50.042;19.224;2023-12-22T02:02:24;96196.80;;;4.09;85.19
75247;BME280;63844;50.042;19.224;2023-12-22T02:04:02;96195.93;;;4.11;84.84
75247;BME280;63844;50.042;19.224;2023-12-22T02:05:41;96197.98;;;4.10;85.31
75247;BME280;63844;50.042;19.224;2023-12-22T02:07:17;96190.23;;;4.08;85.34
75247;BME280;63844;50.042;19.224;2023-12-22T02:08:54;96189.30;;;4.07;85.54
75247;BME280;63844;50.042;19.224;2023-12-22T02:10:31;96179.51;;;4.02;85.14
75247;BME280;63844;50.042;19.224;2023-12-22T02:12:07;96183.38;;;4.02;85.30
75247;BME280;63844;50.042;19.224;2023-12-22T02:13:44;96177.63;;;4.02;85.32
75247;BME280;63844;50.042;19.224;2023-12-22T02:15:21;96176.10;;;3.99;85.55
75247;BME280;63844;50.042;19.224;2023-12-22T02:17:36;96175.59;;;3.99;85.16
75247;BME280;63844;50.042;19.224;2023-12-22T02:19:27;96178.83;;;3.96;85.06
75247;BME280;63844;50.042;19.224;2023-12-22T02:21:08;96179.42;;;3.93;84.68
75247;BME280;63844;50.042;19.224;2023-12-22T02:22:45;96182.55;;;3.96;83.57
75247;BME280;63844;50.042;19.224;2023-12-22T02:24:21;96180.59;;;3.96;83.54
75247;BME280;63844;50.042;19.224;2023-12-22T02:26:28;96173.60;;;3.94;83.78
75247;BME280;63844;50.042;19.224;2023-12-22T02:28:07;96171.48;;;3.92;83.39
75247;BME280;63844;50.042;19.224;2023-12-22T02:29:49;96166.78;;;3.90;83.56
75247;BME280;63844;50.042;19.224;2023-12-22T02:31:40;96163.73;;;3.89;83.35
75247;BME280;63844;50.042;19.224;2023-12-22T02:33:22;96174.55;;;3.87;83.50
75247;BME280;63844;50.042;19.224;2023-12-22T02:35:03;96176.79;;;3.85;83.74
75247;BME280;63844;50.042;19.224;2023-12-22T02:36:41;96175.05;;;3.85;83.95
75247;BME280;63844;50.042;19.224;2023-12-22T02:38:19;96172.96;;;3.85;84.24
75247;BME280;63844;50.042;19.224;2023-12-22T02:39:57;96181.02;;;3.82;84.38
75247;BME280;63844;50.042;19.224;2023-12-22T02:41:35;96171.92;;;3.82;85.08
75247;BME280;63844;50.042;19.224;2023-12-22T02:43:12;96171.45;;;3.82;85.38
75247;BME280;63844;50.042;19.224;2023-12-22T02:44:48;96170.59;;;3.79;85.74
75247;BME280;63844;50.042;19.224;2023-12-22T02:46:25;96175.52;;;3.77;86.45
75247;BME280;63844;50.042;19.224;2023-12-22T02:48:02;96171.20;;;3.76;86.61
75247;BME280;63844;50.042;19.224;2023-12-22T02:49:38;96170.59;;;3.75;86.97
75247;BME280;63844;50.042;19.224;2023-12-22T02:51:15;96167.52;;;3.74;87.29
75247;BME280;63844;50.042;19.224;2023-12-22T02:52:51;96171.30;;;3.77;87.35
75247;BME280;63844;50.042;19.224;2023-12-22T02:54:28;96165.05;;;3.77;87.94
75247;BME280;63844;50.042;19.224;2023-12-22T02:56:06;96166.60;;;3.77;87.84
75247;BME280;63844;50.042;19.224;2023-12-22T02:57:43;96161.72;;;3.77;88.01
75247;BME280;63844;50.042;19.224;2023-12-22T02:59:19;96162.62;;;3.77;88.34
75247;BME280;63844;50.042;19.224;2023-12-22T03:00:56;96159.45;;;3.77;87.80
75247;BME280;63844;50.042;19.224;2023-12-22T03:02:32;96166.26;;;3.77;87.72
75247;BME280;63844;50.042;19.224;2023-12-22T03:04:09;96167.56;;;3.78;87.33
75247;BME280;63844;50.042;19.224;2023-12-22T03:05:45;96170.52;;;3.80;87.27
75247;BME280;63844;50.042;19.224;2023-12-22T03:07:22;96186.51;;;3.80;87.19
75247;BME280;63844;50.042;19.224;2023-12-22T03:08:58;96186.71;;;3.79;87.30
75247;BME280;63844;50.042;19.224;2023-12-22T03:10:35;96190.98;;;3.78;86.91
75247;BME280;63844;50.042;19.224;2023-12-22T03:12:12;96181.34;;;3.77;86.61
75247;BME280;63844;50.042;19.224;2023-12-22T03:13:48;96179.38;;;3.77;86.53
75247;BME280;63844;50.042;19.224;2023-12-22T03:15:25;96192.61;;;3.76;85.76
75247;BME280;63844;50.042;19.224;2023-12-22T03:17:03;96194.95;;;3.77;84.02
75247;BME280;63844;50.042;19.224;2023-12-22T03:18:39;96181.87;;;3.81;83.25
75247;BME280;63844;50.042;19.224;2023-12-22T03:20:16;96185.48;;;3.81;82.22
75247;BME280;63844;50.042;19.224;2023-12-22T03:21:53;96190.39;;;3.81;81.29
75247;BME280;63844;50.042;19.224;2023-12-22T03:23:29;96193.33;;;3.82;80.50
75247;BME280;63844;50.042;19.224;2023-12-22T03:25:06;96205.67;;;3.85;80.04
75247;BME280;63844;50.042;19.224;2023-12-22T03:26:43;96192.83;;;3.88;79.17
75247;BME280;63844;50.042;19.224;2023-12-22T03:28:19;96197.99;;;3.89;78.42
75247;BME280;63844;50.042;19.224;2023-12-22T03:29:56;96187.20;;;3.90;77.49
75247;BME280;63844;50.042;19.224;2023-12-22T03:31:32;96195.77;;;3.91;77.08
75247;BME280;63844;50.042;19.224;2023-12-22T03:33:09;96197.96;;;3.94;76.81
75247;BME280;63844;50.042;19.224;2023-12-22T03:34:45;96201.38;;;3.92;77.29
75247;BME280;63844;50.042;19.224;2023-12-22T03:36:22;96202.88;;;3.93;77.53
75247;BME280;63844;50.042;19.224;2023-12-22T03:37:58;96209.05;;;3.95;77.21
75247;BME280;63844;50.042;19.224;2023-12-22T03:39:35;96201.21;;;3.96;77.23
75247;BME280;63844;50.042;19.224;2023-12-22T03:41:11;96201.11;;;3.93;77.30
75247;BME280;63844;50.042;19.224;2023-12-22T03:42:48;96190.55;;;3.92;77.21
75247;BME280;63844;50.042;19.224;2023-12-22T03:44:25;96196.44;;;3.93;76.96
75247;BME280;63844;50.042;19.224;2023-12-22T03:46:01;96200.70;;;3.94;76.67
75247;BME280;63844;50.042;19.224;2023-12-22T03:47:38;96190.14;;;3.93;76.78
75247;BME280;63844;50.042;19.224;2023-12-22T03:49:14;96190.17;;;3.88;76.89
75247;BME280;63844;50.042;19.224;2023-12-22T03:50:51;96188.20;;;3.87;77.45
75247;BME280;63844;50.042;19.224;2023-12-22T03:52:27;96177.36;;;3.85;77.76
75247;BME280;63844;50.042;19.224;2023-12-22T03:54:04;96177.59;;;3.81;77.94
75247;BME280;63844;50.042;19.224;2023-12-22T03:55:40;96170.20;;;3.78;78.22
75247;BME280;63844;50.042;19.224;2023-12-22T03:57:17;96176.48;;;3.76;78.72
75247;BME280;63844;50.042;19.224;2023-12-22T03:58:53;96170.78;;;3.75;79.02
75247;BME280;63844;50.042;19.224;2023-12-22T04:00:31;96168.94;;;3.72;79.40
75247;BME280;63844;50.042;19.224;2023-12-22T04:02:08;96172.84;;;3.72;79.68
75247;BME280;63844;50.042;19.224;2023-12-22T04:03:44;96171.32;;;3.69;80.07
75247;BME280;63844;50.042;19.224;2023-12-22T04:05:21;96177.22;;;3.67;80.06
75247;BME280;63844;50.042;19.224;2023-12-22T04:06:57;96180.45;;;3.67;80.14
75247;BME280;63844;50.042;19.224;2023-12-22T04:08:34;96172.77;;;3.66;79.83
75247;BME280;63844;50.042;19.224;2023-12-22T04:10:10;96177.05;;;3.63;80.22
75247;BME280;63844;50.042;19.224;2023-12-22T04:11:47;96182.30;;;3.63;80.10
75247;BME280;63844;50.042;19.224;2023-12-22T04:13:23;96172.48;;;3.64;80.54
75247;BME280;63844;50.042;19.224;2023-12-22T04:15:00;96162.88;;;3.61;80.70
75247;BME280;63844;50.042;19.224;2023-12-22T04:16:37;96167.90;;;3.57;80.63
75247;BME280;63844;50.042;19.224;2023-12-22T04:18:16;96154.89;;;3.56;80.01
75247;BME280;63844;50.042;19.224;2023-12-22T04:19:53;96151.69;;;3.57;80.34
75247;BME280;63844;50.042;19.224;2023-12-22T04:21:29;96159.15;;;3.55;80.25
75247;BME280;63844;50.042;19.224;2023-12-22T04:23:06;96154.23;;;3.56;80.04
75247;BME280;63844;50.042;19.224;2023-12-22T04:24:42;96151.23;;;3.54;80.35
75247;BME280;63844;50.042;19.224;2023-12-22T04:26:19;96150.52;;;3.52;80.29
75247;BME280;63844;50.042;19.224;2023-12-22T04:27:55;96145.38;;;3.49;80.27
75247;BME280;63844;50.042;19.224;2023-12-22T04:29:32;96139.28;;;3.50;80.62
75247;BME280;63844;50.042;19.224;2023-12-22T04:31:09;96140.51;;;3.48;80.56
75247;BME280;63844;50.042;19.224;2023-12-22T04:32:45;96144.90;;;3.48;80.40
75247;BME280;63844;50.042;19.224;2023-12-22T04:34:22;96146.93;;;3.49;80.22
75247;BME280;63844;50.042;19.224;2023-12-22T04:35:58;96142.28;;;3.48;80.48
75247;BME280;63844;50.042;19.224;2023-12-22T04:37:35;96143.74;;;3.48;80.48
75247;BME280;63844;50.042;19.224;2023-12-22T04:39:12;96148.88;;;3.45;80.52
75247;BME280;63844;50.042;19.224;2023-12-22T04:40:48;96139.88;;;3.44;80.45
75247;BME280;63844;50.042;19.224;2023-12-22T04:42:25;96135.27;;;3.44;80.15
75247;BME280;63844;50.042;19.224;2023-12-22T04:44:01;96130.48;;;3.47;80.32
75247;BME280;63844;50.042;19.224;2023-12-22T04:45:39;96125.25;;;3.45;80.38
75247;BME280;63844;50.042;19.224;2023-12-22T04:47:16;96133.05;;;3.46;80.37
75247;BME280;63844;50.042;19.224;2023-12-22T04:48:52;96128.89;;;3.45;80.24
75247;BME280;63844;50.042;19.224;2023-12-22T04:50:29;96124.16;;;3.48;79.98
75247;BME280;63844;50.042;19.224;2023-12-22T04:52:05;96140.73;;;3.50;79.66
75247;BME280;63844;50.042;19.224;2023-12-22T04:53:42;96139.83;;;3.52;79.25
75247;BME280;63844;50.042;19.224;2023-12-22T04:55:18;96134.73;;;3.53;79.11
75247;BME280;63844;50.042;19.224;2023-12-22T04:56:55;96143.70;;;3.52;79.25
75247;BME280;63844;50.042;19.224;2023-12-22T04:58:32;96159.85;;;3.55;79.03
75247;BME280;63844;50.042;19.224;2023-12-22T05:00:08;96155.63;;;3.54;79.11
75247;BME280;63844;50.042;19.224;2023-12-22T05:01:45;96160.88;;;3.55;79.09
75247;BME280;63844;50.042;19.224;2023-12-22T05:03:22;96171.83;;;3.57;79.19
75247;BME280;63844;50.042;19.224;2023-12-22T05:04:58;96176.94;;;3.54;79.57
75247;BME280;63844;50.042;19.224;2023-12-22T05:06:35;96184.96;;;3.52;79.56
75247;BME280;63844;50.042;19.224;2023-12-22T05:08:11;96186.66;;;3.51;80.08
75247;BME280;63844;50.042;19.224;2023-12-22T05:09:48;96195.04;;;3.45;80.21
75247;BME280;63844;50.042;19.224;2023-12-22T05:11:25;96180.73;;;3.35;81.39
75247;BME280;63844;50.042;19.224;2023-12-22T05:13:01;96198.09;;;3.26;81.95
75247;BME280;63844;50.042;19.224;2023-12-22T05:14:38;96206.98;;;3.20;82.78
75247;BME280;63844;50.042;19.224;2023-12-22T05:16:14;96216.30;;;3.11;83.72
75247;BME280;63844;50.042;19.224;2023-12-22T05:17:51;96222.59;;;2.80;86.74
75247;BME280;63844;50.042;19.224;2023-12-22T05:19:27;96217.59;;;2.35;89.32
75247;BME280;63844;50.042;19.224;2023-12-22T05:21:04;96224.12;;;1.98;91.39
75247;BME280;63844;50.042;19.224;2023-12-22T05:22:40;96229.23;;;1.74;93.29
75247;BME280;63844;50.042;19.224;2023-12-22T05:24:17;96251.89;;;1.55;93.91
75247;BME280;63844;50.042;19.224;2023-12-22T05:25:53;96260.19;;;1.35;94.67
75247;BME280;63844;50.042;19.224;2023-12-22T05:27:30;96260.30;;;1.17;95.86
75247;BME280;63844;50.042;19.224;2023-12-22T05:29:06;96275.94;;;1.05;96.23
75247;BME280;63844;50.042;19.224;2023-12-22T05:30:44;96284.27;;;0.93;97.04
75247;BME280;63844;50.042;19.224;2023-12-22T05:32:21;96287.80;;;0.83;97.36
75247;BME280;63844;50.042;19.224;2023-12-22T05:33:58;96273.41;;;0.69;98.09
75247;BME280;63844;50.042;19.224;2023-12-22T05:35:35;96274.55;;;0.60;98.18
75247;BME280;63844;50.042;19.224;2023-12-22T05:37:11;96290.95;;;0.55;98.74
75247;BME280;63844;50.042;19.224;2023-12-22T05:38:48;96279.52;;;0.54;98.88
75247;BME280;63844;50.042;19.224;2023-12-22T05:40:24;96283.36;;;0.56;98.86
75247;BME280;63844;50.042;19.224;2023-12-22T05:42:01;96281.27;;;0.54;99.17
75247;BME280;63844;50.042;19.224;2023-12-22T05:43:37;96282.53;;;0.53;99.29
75247;BME280;63844;50.042;19.224;2023-12-22T05:45:14;96272.82;;;0.55;99.26
75247;BME280;63844;50.042;19.224;2023-12-22T05:46:51;96273.86;;;0.55;99.34
75247;BME280;63844;50.042;19.224;2023-12-22T05:48:28;96264.10;;;0.58;98.59
75247;BME280;63844;50.042;19.224;2023-12-22T05:50:05;96259.52;;;0.59;98.35
75247;BME280;63844;50.042;19.224;2023-12-22T05:51:41;96260.34;;;0.64;97.53
75247;BME280;63844;50.042;19.224;2023-12-22T05:53:18;96267.05;;;0.71;96.33
75247;BME280;63844;50.042;19.224;2023-12-22T05:54:54;96262.08;;;0.80;94.86
75247;BME280;63844;50.042;19.224;2023-12-22T05:56:31;96257.83;;;0.80;95.08
75247;BME280;63844;50.042;19.224;2023-12-22T05:58:09;96268.29;;;0.83;94.17
75247;BME280;63844;50.042;19.224;2023-12-22T05:59:45;96261.83;;;0.88;93.53
75247;BME280;63844;50.042;19.224;2023-12-22T06:01:22;96267.18;;;0.91;93.47
75247;BME280;63844;50.042;19.224;2023-12-22T06:03:00;96265.46;;;0.93;93.20
75247;BME280;63844;50.042;19.224;2023-12-22T06:04:37;96265.90;;;0.94;92.76
75247;BME280;63844;50.042;19.224;2023-12-22T06:06:14;96267.67;;;0.94;92.33
75247;BME280;63844;50.042;19.224;2023-12-22T06:07:50;96266.67;;;0.98;91.13
75247;BME280;63844;50.042;19.224;2023-12-22T06:09:27;96261.21;;;1.01;90.91
75247;BME280;63844;50.042;19.224;2023-12-22T06:11:04;96266.40;;;0.99;90.78
75247;BME280;63844;50.042;19.224;2023-12-22T06:12:41;96276.33;;;0.99;90.56
75247;BME280;63844;50.042;19.224;2023-12-22T06:14:18;96276.66;;;1.00;90.53
75247;BME280;63844;50.042;19.224;2023-12-22T06:15:54;96285.50;;;1.00;90.27
75247;BME280;63844;50.042;19.224;2023-12-22T06:17:31;96280.35;;;1.01;90.16
75247;BME280;63844;50.042;19.224;2023-12-22T06:19:07;96276.23;;;0.98;90.53
75247;BME280;63844;50.042;19.224;2023-12-22T06:20:44;96282.95;;;0.97;90.26
75247;BME280;63844;50.042;19.224;2023-12-22T06:22:20;96279.20;;;0.98;90.17
75247;BME280;63844;50.042;19.224;2023-12-22T06:23:58;96281.35;;;0.97;90.27
75247;BME280;63844;50.042;19.224;2023-12-22T06:25:34;96288.96;;;0.96;90.32
75247;BME280;63844;50.042;19.224;2023-12-22T06:27:11;96288.81;;;0.95;90.44
75247;BME280;63844;50.042;19.224;2023-12-22T06:28:47;96303.61;;;0.96;90.15
75247;BME280;63844;50.042;19.224;2023-12-22T06:30:24;96297.82;;;0.96;90.19
75247;BME280;63844;50.042;19.224;2023-12-22T06:32:00;96299.59;;;0.95;90.28
75247;BME280;63844;50.042;19.224;2023-12-22T06:33:37;96299.20;;;0.94;90.18
75247;BME280;63844;50.042;19.224;2023-12-22T06:35:13;96293.76;;;0.92;90.17
75247;BME280;63844;50.042;19.224;2023-12-22T06:36:50;96299.91;;;0.93;89.40
75247;BME280;63844;50.042;19.224;2023-12-22T06:38:26;96302.80;;;0.95;89.76
75247;BME280;63844;50.042;19.224;2023-12-22T06:40:04;96300.45;;;0.93;89.51
75247;BME280;63844;50.042;19.224;2023-12-22T06:41:41;96313.97;;;0.92;89.46
75247;BME280;63844;50.042;19.224;2023-12-22T06:43:18;96315.89;;;0.92;89.61
75247;BME280;63844;50.042;19.224;2023-12-22T06:44:54;96321.82;;;0.91;89.47
75247;BME280;63844;50.042;19.224;2023-12-22T06:46:31;96328.10;;;0.89;89.79
75247;BME280;63844;50.042;19.224;2023-12-22T06:48:07;96333.45;;;0.90;89.55
75247;BME280;63844;50.042;19.224;2023-12-22T06:49:46;96335.36;;;0.90;89.79
75247;BME280;63844;50.042;19.224;2023-12-22T06:51:27;96333.84;;;0.86;90.05
75247;BME280;63844;50.042;19.224;2023-12-22T06:53:04;96330.48;;;0.84;90.02
75247;BME280;63844;50.042;19.224;2023-12-22T06:54:40;96328.95;;;0.84;89.89
75247;BME280;63844;50.042;19.224;2023-12-22T06:56:18;96333.40;;;0.83;90.07
75247;BME280;63844;50.042;19.224;2023-12-22T06:57:56;96340.64;;;0.81;90.16
75247;BME280;63844;50.042;19.224;2023-12-22T06:59:32;96349.18;;;0.81;90.49
75247;BME280;63844;50.042;19.224;2023-12-22T07:01:09;96346.80;;;0.80;90.41
75247;BME280;63844;50.042;19.224;2023-12-22T07:02:46;96350.02;;;0.84;89.75
75247;BME280;63844;50.042;19.224;2023-12-22T07:04:23;96344.54;;;0.85;89.85
75247;BME280;63844;50.042;19.224;2023-12-22T07:05:59;96332.29;;;0.88;88.94
75247;BME280;63844;50.042;19.224;2023-12-22T07:07:36;96334.77;;;0.98;88.06
75247;BME280;63844;50.042;19.224;2023-12-22T07:10:55;96328.61;;;1.08;86.88
75247;BME280;63844;50.042;19.224;2023-12-22T07:12:32;96330.98;;;1.12;86.67
75247;BME280;63844;50.042;19.224;2023-12-22T07:14:09;96337.44;;;1.15;86.77
75247;BME280;63844;50.042;19.224;2023-12-22T07:15:45;96333.11;;;1.17;86.31
75247;BME280;63844;50.042;19.224;2023-12-22T07:17:22;96330.06;;;1.20;86.20
75247;BME280;63844;50.042;19.224;2023-12-22T07:18:59;96332.43;;;1.24;86.30
75247;BME280;63844;50.042;19.224;2023-12-22T07:20:37;96333.92;;;1.27;85.92
75247;BME280;63844;50.042;19.224;2023-12-22T07:22:14;96341.11;;;1.29;86.22
75247;BME280;63844;50.042;19.224;2023-12-22T07:23:51;96343.36;;;1.34;86.41
75247;BME280;63844;50.042;19.224;2023-12-22T07:25:28;96338.27;;;1.34;86.77
75247;BME280;63844;50.042;19.224;2023-12-22T07:27:04;96337.33;;;1.35;86.71
75247;BME280;63844;50.042;19.224;2023-12-22T07:28:41;96332.70;;;1.37;86.37
75247;BME280;63844;50.042;19.224;2023-12-22T07:30:18;96329.45;;;1.41;86.56
75247;BME280;63844;50.042;19.224;2023-12-22T07:31:55;96333.52;;;1.45;86.83
75247;BME280;63844;50.042;19.224;2023-12-22T07:33:31;96335.10;;;1.49;87.37
75247;BME280;63844;50.042;19.224;2023-12-22T07:35:08;96335.92;;;1.52;87.53
75247;BME280;63844;50.042;19.224;2023-12-22T07:36:45;96333.32;;;1.60;87.40
75247;BME280;63844;50.042;19.224;2023-12-22T07:38:21;96342.33;;;1.65;87.69
75247;BME280;63844;50.042;19.224;2023-12-22T07:39:58;96343.50;;;1.75;87.63
75247;BME280;63844;50.042;19.224;2023-12-22T07:41:34;96343.23;;;1.81;87.74
75247;BME280;63844;50.042;19.224;2023-12-22T07:43:11;96345.73;;;1.86;87.81
75247;BME280;63844;50.042;19.224;2023-12-22T07:44:47;96350.95;;;1.90;87.69
75247;BME280;63844;50.042;19.224;2023-12-22T07:46:24;96346.01;;;1.98;87.70
75247;BME280;63844;50.042;19.224;2023-12-22T07:48:00;96350.92;;;2.02;87.34
75247;BME280;63844;50.042;19.224;2023-12-22T07:49:37;96349.89;;;2.07;87.56
75247;BME280;63844;50.042;19.224;2023-12-22T07:51:14;96355.13;;;2.09;87.53
75247;BME280;63844;50.042;19.224;2023-12-22T07:52:50;96353.52;;;2.10;87.61
75247;BME280;63844;50.042;19.224;2023-12-22T07:54:27;96367.86;;;2.12;87.23
75247;BME280;63844;50.042;19.224;2023-12-22T07:56:04;96362.75;;;2.15;87.09
75247;BME280;63844;50.042;19.224;2023-12-22T07:57:42;96365.10;;;2.18;87.16
75247;BME280;63844;50.042;19.224;2023-12-22T07:59:18;96365.88;;;2.22;86.78
75247;BME280;63844;50.042;19.224;2023-12-22T08:00:55;96365.55;;;2.24;87.03
75247;BME280;63844;50.042;19.224;2023-12-22T08:02:31;96365.20;;;2.26;86.89
75247;BME280;63844;50.042;19.224;2023-12-22T08:04:08;96359.38;;;2.29;86.35
75247;BME280;63844;50.042;19.224;2023-12-22T08:05:44;96354.63;;;2.32;86.09
75247;BME280;63844;50.042;19.224;2023-12-22T08:07:21;96351.88;;;2.34;85.85
75247;BME280;63844;50.042;19.224;2023-12-22T08:08:58;96352.67;;;2.37;86.15
75247;BME280;63844;50.042;19.224;2023-12-22T08:10:34;96345.17;;;2.42;85.53
75247;BME280;63844;50.042;19.224;2023-12-22T08:12:11;96347.05;;;2.47;85.38
75247;BME280;63844;50.042;19.224;2023-12-22T08:13:47;96345.65;;;2.54;85.21
75247;BME280;63844;50.042;19.224;2023-12-22T08:15:24;96352.80;;;2.59;84.77
75247;BME280;63844;50.042;19.224;2023-12-22T08:17:00;96343.81;;;2.64;84.38
75247;BME280;63844;50.042;19.224;2023-12-22T08:18:37;96334.87;;;2.67;84.64
75247;BME280;63844;50.042;19.224;2023-12-22T08:20:19;96332.06;;;2.72;84.61
75247;BME280;63844;50.042;19.224;2023-12-22T08:21:56;96344.66;;;2.76;84.35
75247;BME280;63844;50.042;19.224;2023-12-22T08:23:33;96343.67;;;2.77;83.93
75247;BME280;63844;50.042;19.224;2023-12-22T08:25:09;96336.93;;;2.76;84.13
75247;BME280;63844;50.042;19.224;2023-12-22T08:26:46;96343.06;;;2.76;84.05
75247;BME280;63844;50.042;19.224;2023-12-22T08:28:22;96343.04;;;2.77;84.09
75247;BME280;63844;50.042;19.224;2023-12-22T08:29:59;96337.46;;;2.74;84.30
75247;BME280;63844;50.042;19.224;2023-12-22T08:31:35;96350.60;;;2.71;83.63
75247;BME280;63844;50.042;19.224;2023-12-22T08:33:12;96354.88;;;2.73;83.57
75247;BME280;63844;50.042;19.224;2023-12-22T08:34:49;96367.37;;;2.71;82.83
75247;BME280;63844;50.042;19.224;2023-12-22T08:36:25;96356.39;;;2.71;83.02